West Alton, New Hampshire
Current Conditions -  °F | °C
As of 1:15 PM on Thursday 18 Dec 2014 (Local Time) from KLCI Reporting Station
Overcast Overcast  
Wind Chill: -1°   Ceiling: 2800
Heat Index:   Visibility: 10mi
Dew Point: -3°   Wind: 13mph
Humidity: 65%   Direction: 280°W
Pressure: 29.71"   Gusts: 18mph
Location:  43.4879°N, 71.2495°W
Report Text: KLCI 181815Z AUTO 28011G16KT 10SM BKN028 BKN035 OVC043 03/M03 A2971 RMK AO1
Loading
Personal Weather Stations






























Interactive Weather Map New forecast layout! Learn more

10-Day Weather Forecast

Advertisements
Track Severe Weather on mobile